createdAt,value
2022-11-16T00:00:05.934Z,27.17
2022-11-16T00:02:36.093Z,26.38
2022-11-16T00:05:04.443Z,26.25
2022-11-16T00:07:32.936Z,27.25
2022-11-16T00:10:01.778Z,28.40
2022-11-16T00:12:29.760Z,27.17
2022-11-16T00:14:57.760Z,28.55
2022-11-16T00:17:25.736Z,25.65
2022-11-16T00:19:55.146Z,26.98
2022-11-16T00:22:23.124Z,24.83
2022-11-16T00:24:51.262Z,26.40
2022-11-16T00:27:20.766Z,25.90
2022-11-16T00:29:48.782Z,26.60
2022-11-16T00:32:16.811Z,27.67
2022-11-16T00:34:44.787Z,29.23
2022-11-16T00:37:14.758Z,27.33
2022-11-16T00:39:42.790Z,28.48
2022-11-16T00:42:13.852Z,28.02
2022-11-16T00:44:41.966Z,26.60
2022-11-16T00:47:10.030Z,26.17
2022-11-16T00:49:38.554Z,27.90
2022-11-16T00:52:06.737Z,27.20
2022-11-16T00:54:36.450Z,27.30
2022-11-16T00:57:04.881Z,27.17
2022-11-16T00:59:33.090Z,26.35
2022-11-16T01:02:05.236Z,25.30
2022-11-16T01:04:33.633Z,27.00
2022-11-16T01:07:01.686Z,24.45
2022-11-16T01:09:29.738Z,25.73
2022-11-16T01:12:10.453Z,25.30
2022-11-16T01:14:40.385Z,24.17
2022-11-16T01:17:08.902Z,24.30
2022-11-16T01:19:38.258Z,26.17
2022-11-16T01:22:06.784Z,25.48
2022-11-16T01:24:35.288Z,23.75
2022-11-16T01:27:04.882Z,24.23
2022-11-16T01:29:36.162Z,24.77
2022-11-16T01:32:04.618Z,23.67
2022-11-16T01:34:33.409Z,24.48
2022-11-16T01:37:07.578Z,23.20
2022-11-16T01:39:39.610Z,23.67
2022-11-16T01:42:15.753Z,25.92
2022-11-16T01:45:03.094Z,24.92
2022-11-16T01:47:31.298Z,24.48
2022-11-16T01:50:07.564Z,23.83
2022-11-16T01:52:41.443Z,23.55
2022-11-16T01:55:11.968Z,23.58
2022-11-16T01:58:01.473Z,24.05
2022-11-16T02:01:12.093Z,22.80
2022-11-16T02:03:47.176Z,23.77
2022-11-16T02:06:33.904Z,23.27
2022-11-16T02:09:53.961Z,23.13
2022-11-16T02:12:40.724Z,22.20
2022-11-16T02:15:21.651Z,23.40
2022-11-16T02:18:11.158Z,24.67
2022-11-16T02:20:59.212Z,23.80
2022-11-16T02:24:00.625Z,24.85
2022-11-16T02:27:09.226Z,23.63
2022-11-16T02:29:41.019Z,23.42
2022-11-16T02:32:14.212Z,23.00
2022-11-16T02:34:46.521Z,23.98
2022-11-16T02:37:20.617Z,25.60
2022-11-16T02:39:52.577Z,24.67
2022-11-16T02:42:29.401Z,25.40
2022-11-16T02:45:00.356Z,25.75
2022-11-16T02:47:33.021Z,26.15
2022-11-16T02:50:06.247Z,26.27
2022-11-16T02:52:34.306Z,26.00
2022-11-16T02:55:02.579Z,25.58
2022-11-16T02:57:56.796Z,25.90
2022-11-16T03:00:31.015Z,24.38
2022-11-16T03:03:10.045Z,24.85
2022-11-16T03:05:43.113Z,27.73
2022-11-16T03:08:17.830Z,26.98
2022-11-16T03:11:09.658Z,27.08
2022-11-16T03:13:43.444Z,25.48
2022-11-16T03:16:18.494Z,26.67
2022-11-16T03:18:49.011Z,25.63
2022-11-16T03:21:22.225Z,24.20
2022-11-16T03:23:50.663Z,24.40
2022-11-16T03:26:24.096Z,23.13
2022-11-16T03:28:58.957Z,22.58
2022-11-16T03:31:33.239Z,22.23
2022-11-16T03:34:08.246Z,22.45
2022-11-16T03:36:40.019Z,22.93
2022-11-16T03:39:13.784Z,21.05
2022-11-16T03:41:45.648Z,22.30
2022-11-16T03:44:16.412Z,21.83
2022-11-16T03:46:49.031Z,22.55
2022-11-16T03:49:22.171Z,21.35
2022-11-16T03:51:53.670Z,21.95
2022-11-16T03:54:22.674Z,20.98
2022-11-16T03:56:51.030Z,24.02
2022-11-16T03:59:19.533Z,22.80
2022-11-16T04:01:51.072Z,22.58
2022-11-16T04:04:36.756Z,21.08
2022-11-16T04:07:23.028Z,22.63
2022-11-16T04:10:09.360Z,21.67
2022-11-16T04:13:11.067Z,20.95
2022-11-16T04:15:56.614Z,21.13
2022-11-16T04:18:44.066Z,21.25
2022-11-16T04:21:37.408Z,19.77
2022-11-16T04:24:15.537Z,20.05
2022-11-16T04:27:04.114Z,21.25
2022-11-16T04:29:33.609Z,19.58
2022-11-16T04:32:19.759Z,20.05
2022-11-16T04:35:06.745Z,20.60
2022-11-16T04:37:52.578Z,18.52
2022-11-16T04:40:30.934Z,19.25
2022-11-16T04:43:01.689Z,19.15
2022-11-16T04:45:51.746Z,18.17
2022-11-16T04:48:22.993Z,18.75
2022-11-16T04:50:55.557Z,18.73
2022-11-16T04:53:27.191Z,20.27
2022-11-16T04:56:24.806Z,20.20
2022-11-16T04:58:53.718Z,19.98
2022-11-16T05:01:42.905Z,20.77
2022-11-16T05:04:11.653Z,18.70
2022-11-16T05:06:41.463Z,19.92
2022-11-16T05:09:09.834Z,20.65
2022-11-16T05:11:37.961Z,20.75
2022-11-16T05:14:07.047Z,20.65
2022-11-16T05:16:35.200Z,19.13
2022-11-16T05:19:20.999Z,20.55
2022-11-16T05:24:37.463Z,19.67
2022-11-16T05:27:09.538Z,19.25
2022-11-16T05:29:38.131Z,19.45
2022-11-16T05:32:08.051Z,19.83
2022-11-16T05:34:36.225Z,20.77
2022-11-16T05:37:06.824Z,17.58
2022-11-16T05:39:35.275Z,18.27
2022-11-16T05:42:03.604Z,17.60
2022-11-16T05:44:31.828Z,18.02
2022-11-16T05:47:00.195Z,17.50
2022-11-16T05:49:29.099Z,18.35
2022-11-16T05:51:57.318Z,17.02
2022-11-16T05:54:27.348Z,18.25
2022-11-16T05:56:57.301Z,16.70
2022-11-16T05:59:25.971Z,17.90
2022-11-16T06:01:57.989Z,17.08
2022-11-16T06:04:26.665Z,17.88
2022-11-16T06:06:56.095Z,17.40
2022-11-16T06:09:31.302Z,18.30
2022-11-16T06:12:06.877Z,18.85
2022-11-16T06:14:35.126Z,17.50
2022-11-16T06:17:03.380Z,19.58
2022-11-16T06:19:32.688Z,18.17
2022-11-16T06:22:01.097Z,18.27
2022-11-16T06:24:32.271Z,19.20
2022-11-16T06:27:00.375Z,17.60
2022-11-16T06:29:28.880Z,18.13
2022-11-16T06:31:57.197Z,17.75
2022-11-16T06:34:25.375Z,18.23
2022-11-16T06:36:53.663Z,18.48
2022-11-16T06:39:22.593Z,18.17
2022-11-16T06:41:52.316Z,27.13
2022-11-16T06:44:20.338Z,19.00
2022-11-16T06:46:56.705Z,19.20
2022-11-16T06:49:25.701Z,18.27
2022-11-16T06:51:57.407Z,18.67
2022-11-16T06:54:26.390Z,17.23
2022-11-16T06:56:55.870Z,17.02
2022-11-16T06:59:24.309Z,17.15
2022-11-16T07:01:53.258Z,18.08
2022-11-16T07:04:21.531Z,17.73
2022-11-16T07:06:54.847Z,16.67
2022-11-16T07:09:23.006Z,17.33
2022-11-16T07:11:51.355Z,18.00
2022-11-16T07:14:22.905Z,17.10
2022-11-16T07:16:56.283Z,17.08
2022-11-16T07:19:27.274Z,17.20
2022-11-16T07:21:55.277Z,18.17
2022-11-16T07:24:23.899Z,16.55
2022-11-16T07:26:52.221Z,16.92
2022-11-16T07:29:27.380Z,17.88
2022-11-16T07:32:31.356Z,18.42
2022-11-16T07:35:08.464Z,17.75
2022-11-16T07:37:38.554Z,18.27
2022-11-16T07:40:09.882Z,18.98
2022-11-16T07:42:39.527Z,17.90
2022-11-16T07:45:29.440Z,17.13
2022-11-16T07:48:06.574Z,17.75
2022-11-16T07:51:09.124Z,18.65
2022-11-16T07:53:42.728Z,19.15
2022-11-16T07:56:11.292Z,21.17
2022-11-16T07:58:41.733Z,20.30
2022-11-16T08:01:13.420Z,20.25
2022-11-16T08:03:43.736Z,20.15
2022-11-16T08:06:15.146Z,21.55
2022-11-16T08:08:44.056Z,19.95
2022-11-16T08:11:13.745Z,22.45
2022-11-16T08:13:43.427Z,22.73
2022-11-16T08:16:15.158Z,20.63
2022-11-16T08:18:45.683Z,23.33
2022-11-16T08:21:16.685Z,21.10
2022-11-16T08:23:46.019Z,20.83
2022-11-16T08:26:18.004Z,18.73
2022-11-16T08:28:56.495Z,18.35
2022-11-16T08:34:13.112Z,16.02
2022-11-16T08:36:44.967Z,16.38
2022-11-16T08:39:14.249Z,15.18
2022-11-16T08:41:44.399Z,15.27
2022-11-16T08:44:12.644Z,16.10
2022-11-16T08:46:46.174Z,15.18
2022-11-16T08:49:34.505Z,15.00
2022-11-16T08:52:03.068Z,15.82
2022-11-16T08:54:32.363Z,17.40
2022-11-16T08:57:01.037Z,16.25
2022-11-16T08:59:32.436Z,16.98
2022-11-16T09:02:08.219Z,15.52
2022-11-16T09:04:37.293Z,17.20
2022-11-16T09:07:05.665Z,15.90
2022-11-16T09:09:33.748Z,16.05
2022-11-16T09:12:01.728Z,16.45
2022-11-16T09:14:30.776Z,17.38
2022-11-16T09:16:58.807Z,16.98
2022-11-16T09:19:28.129Z,17.73
2022-11-16T09:21:56.088Z,18.13
2022-11-16T09:24:26.074Z,19.25
2022-11-16T09:27:00.820Z,22.02
2022-11-16T09:29:29.229Z,21.58
2022-11-16T09:31:58.482Z,24.27
2022-11-16T09:34:28.411Z,22.63
2022-11-16T09:36:56.425Z,22.10
2022-11-16T09:39:31.160Z,23.10
2022-11-16T09:42:08.355Z,21.88
2022-11-16T09:44:46.824Z,22.40
2022-11-16T09:47:19.610Z,22.42
2022-11-16T09:50:04.029Z,22.70
2022-11-16T09:52:35.436Z,22.20
2022-11-16T09:55:26.013Z,21.80
2022-11-16T09:57:58.113Z,22.33
2022-11-16T10:00:26.684Z,23.52
2022-11-16T10:03:02.382Z,21.77
2022-11-16T10:05:36.504Z,22.65
2022-11-16T10:08:14.276Z,22.23
2022-11-16T10:10:53.530Z,25.88
2022-11-16T10:13:35.752Z,26.33
2022-11-16T10:16:10.275Z,28.15
2022-11-16T10:18:50.175Z,27.77
2022-11-16T10:21:35.396Z,26.88
2022-11-16T10:24:25.241Z,26.25
2022-11-16T10:27:03.949Z,27.45
2022-11-16T10:29:46.584Z,27.30
2022-11-16T10:32:26.094Z,28.90
2022-11-16T10:34:55.814Z,28.45
2022-11-16T10:37:30.673Z,27.55
2022-11-16T10:39:59.050Z,27.15
2022-11-16T10:42:34.100Z,26.00
2022-11-16T10:45:14.427Z,28.08
2022-11-16T10:47:47.374Z,29.17
2022-11-16T10:50:32.987Z,25.80
2022-11-16T10:53:02.759Z,27.17
2022-11-16T10:55:31.248Z,26.27
2022-11-16T10:58:00.985Z,26.48
2022-11-16T11:00:40.315Z,25.30
2022-11-16T11:03:10.818Z,24.38
2022-11-16T11:05:49.163Z,24.60
2022-11-16T11:08:30.622Z,23.15
2022-11-16T11:11:03.433Z,23.73
2022-11-16T11:13:34.929Z,22.58
2022-11-16T11:16:17.354Z,20.30
2022-11-16T11:18:45.495Z,19.73
2022-11-16T11:21:20.936Z,19.77
2022-11-16T11:23:53.127Z,20.20
2022-11-16T11:26:36.508Z,20.23
2022-11-16T11:29:16.745Z,19.90
2022-11-16T11:31:48.500Z,19.58
2022-11-16T11:34:20.284Z,19.98
2022-11-16T11:36:50.846Z,19.98
2022-11-16T11:39:33.524Z,18.98
2022-11-16T11:42:07.823Z,20.75
2022-11-16T11:44:49.272Z,20.27
2022-11-16T11:47:58.600Z,21.00
2022-11-16T11:50:37.760Z,19.63
2022-11-16T11:53:09.417Z,20.70
2022-11-16T11:55:40.181Z,20.25
2022-11-16T11:58:18.929Z,20.65
2022-11-16T12:00:59.205Z,20.52
2022-11-16T12:03:55.212Z,21.80
2022-11-16T12:06:31.185Z,23.02
2022-11-16T12:09:13.948Z,21.98
2022-11-16T12:12:00.441Z,21.17
2022-11-16T12:14:45.216Z,21.25
2022-11-16T12:17:20.609Z,21.17
2022-11-16T12:20:25.880Z,21.13
2022-11-16T12:23:26.536Z,22.55
2022-11-16T12:26:02.410Z,21.85
2022-11-16T12:31:33.881Z,20.13
2022-11-16T12:34:08.152Z,22.05
2022-11-16T12:36:42.036Z,22.88
2022-11-16T12:42:14.640Z,22.80
2022-11-16T12:45:03.340Z,23.00
2022-11-16T12:47:43.436Z,24.13
2022-11-16T12:50:31.056Z,22.75
2022-11-16T12:53:18.842Z,22.83
2022-11-16T12:55:56.385Z,23.63
2022-11-16T12:58:34.355Z,23.30
2022-11-16T13:01:15.920Z,23.45
2022-11-16T13:03:52.621Z,23.60
2022-11-16T13:06:26.194Z,21.95
2022-11-16T13:09:02.901Z,22.83
2022-11-16T13:11:34.539Z,22.40
2022-11-16T13:14:06.513Z,21.73
2022-11-16T13:16:36.895Z,22.95
2022-11-16T13:19:08.201Z,23.23
2022-11-16T13:21:44.601Z,21.30
2022-11-16T13:24:30.826Z,22.73
2022-11-16T13:27:23.940Z,23.48
2022-11-16T13:29:57.212Z,21.60
2022-11-16T13:32:37.177Z,21.13
2022-11-16T13:35:06.676Z,21.70
2022-11-16T13:37:45.654Z,22.45
2022-11-16T13:40:24.525Z,21.60
2022-11-16T13:43:19.873Z,20.83
2022-11-16T13:46:05.856Z,18.50
2022-11-16T13:48:38.240Z,19.38
2022-11-16T13:51:10.526Z,17.23
2022-11-16T13:54:37.753Z,16.88
2022-11-16T13:56:48.758Z,16.67
2022-11-16T13:59:24.347Z,16.35
2022-11-16T14:01:58.135Z,16.67
2022-11-16T14:04:55.539Z,16.95
2022-11-16T14:07:33.282Z,14.73
2022-11-16T14:10:02.176Z,16.50
2022-11-16T14:12:59.897Z,17.25
2022-11-16T14:15:36.827Z,19.17
2022-11-16T14:18:35.188Z,18.00
2022-11-16T14:21:16.328Z,16.95
2022-11-16T14:24:10.703Z,17.75
2022-11-16T14:26:48.928Z,16.95
2022-11-16T14:29:29.284Z,15.35
2022-11-16T14:31:59.494Z,16.13
2022-11-16T14:34:32.342Z,15.10
2022-11-16T14:37:01.907Z,15.57
2022-11-16T14:39:37.254Z,14.60
2022-11-16T14:42:08.839Z,14.18
2022-11-16T14:44:40.677Z,15.75
2022-11-16T14:47:22.313Z,15.13
2022-11-16T14:49:52.090Z,15.38
2022-11-16T14:52:50.471Z,16.05
2022-11-16T14:55:21.002Z,15.48
2022-11-16T14:57:49.721Z,16.63
2022-11-16T15:00:26.038Z,16.08
2022-11-16T15:03:02.140Z,14.93
2022-11-16T15:05:34.840Z,16.73
2022-11-16T15:08:08.237Z,18.35
2022-11-16T15:10:37.093Z,21.50
2022-11-16T15:13:06.279Z,25.38
2022-11-16T15:15:40.238Z,28.08
2022-11-16T15:18:15.185Z,41.65
2022-11-16T15:20:50.465Z,47.10
2022-11-16T15:23:30.853Z,31.65
2022-11-16T15:26:02.383Z,31.52
2022-11-16T15:28:35.206Z,30.52
2022-11-16T15:31:06.556Z,26.25
2022-11-16T15:33:38.603Z,23.55
2022-11-16T15:36:25.054Z,23.73
2022-11-16T15:38:56.548Z,24.48
2022-11-16T15:41:28.127Z,25.17
2022-11-16T15:44:14.026Z,20.65
2022-11-16T15:46:45.745Z,20.73
2022-11-16T15:49:25.966Z,21.30
2022-11-16T15:51:54.533Z,24.05
2022-11-16T15:54:29.790Z,30.30
2022-11-16T15:57:00.316Z,31.35
2022-11-16T15:59:32.788Z,30.13
2022-11-16T16:02:03.593Z,27.52
2022-11-16T16:04:32.770Z,25.40
2022-11-16T16:07:04.543Z,24.38
2022-11-16T16:09:37.098Z,28.65
2022-11-16T16:12:18.507Z,34.13
2022-11-16T16:14:48.720Z,36.60
2022-11-16T16:17:24.704Z,35.35
2022-11-16T16:22:31.567Z,25.73
2022-11-16T16:25:01.877Z,24.15
2022-11-16T16:27:31.645Z,25.52
2022-11-16T16:30:03.993Z,22.60
2022-11-16T16:32:34.429Z,18.48
2022-11-16T16:35:05.508Z,20.77
2022-11-16T16:37:35.809Z,18.08
2022-11-16T16:40:06.821Z,18.83
2022-11-16T16:42:35.141Z,17.13
2022-11-16T16:45:03.988Z,17.25
2022-11-16T16:47:32.786Z,15.70
2022-11-16T16:50:01.542Z,14.30
2022-11-16T16:52:30.620Z,13.77
2022-11-16T16:54:58.802Z,16.48
2022-11-16T16:57:29.082Z,18.27
2022-11-16T16:59:57.820Z,25.42
2022-11-16T17:02:26.992Z,29.90
2022-11-16T17:04:55.449Z,31.27
2022-11-16T17:07:24.236Z,34.47
2022-11-16T17:09:53.006Z,33.38
2022-11-16T17:12:21.261Z,29.75
2022-11-16T17:14:52.463Z,31.30
2022-11-16T17:17:21.334Z,25.30
2022-11-16T17:19:49.713Z,22.00
2022-11-16T17:22:18.190Z,22.20
2022-11-16T17:24:46.567Z,18.15
2022-11-16T17:27:15.225Z,17.60
2022-11-16T17:29:44.529Z,18.25
2022-11-16T17:32:15.908Z,18.13
2022-11-16T17:34:45.127Z,16.38
2022-11-16T17:37:14.005Z,16.15
2022-11-16T17:39:42.873Z,18.83
2022-11-16T17:42:11.192Z,20.52
2022-11-16T17:44:42.074Z,19.35
2022-11-16T17:47:10.901Z,20.00
2022-11-16T17:49:40.744Z,20.42
2022-11-16T17:52:09.250Z,20.63
2022-11-16T17:54:37.438Z,20.95
2022-11-16T17:57:05.703Z,21.00
2022-11-16T17:59:34.474Z,19.95
2022-11-16T18:02:02.918Z,20.30
2022-11-16T18:04:31.262Z,21.10
2022-11-16T18:07:01.433Z,21.85
2022-11-16T18:09:30.336Z,22.15
2022-11-16T18:11:59.027Z,23.52
2022-11-16T18:14:28.694Z,15.32
2022-11-16T18:16:57.609Z,15.57
2022-11-16T18:19:25.925Z,14.07
2022-11-16T18:21:54.464Z,14.57
2022-11-16T18:24:25.156Z,15.48
2022-11-16T18:26:54.953Z,16.27
2022-11-16T18:29:23.470Z,17.45
2022-11-16T18:31:52.790Z,16.20
2022-11-16T18:34:22.077Z,17.08
2022-11-16T18:36:51.239Z,17.98
2022-11-16T18:39:20.170Z,18.70
2022-11-16T18:41:55.090Z,19.48
2022-11-16T18:44:24.854Z,17.92
2022-11-16T18:46:54.284Z,18.25
2022-11-16T18:49:25.247Z,15.95
2022-11-16T18:51:55.043Z,15.38
2022-11-16T18:54:24.596Z,15.82
2022-11-16T18:56:57.605Z,15.18
2022-11-16T18:59:27.207Z,14.90
2022-11-16T19:01:56.237Z,12.60
2022-11-16T19:04:27.250Z,15.55
2022-11-16T19:06:56.824Z,15.88
2022-11-16T19:09:29.013Z,17.55
2022-11-16T19:11:59.811Z,16.48
2022-11-16T19:14:28.690Z,17.60
2022-11-16T19:16:57.548Z,14.88
2022-11-16T19:19:27.841Z,15.48
2022-11-16T19:21:59.001Z,17.38
2022-11-16T19:24:29.495Z,15.82
2022-11-16T19:27:01.939Z,17.02
2022-11-16T19:29:31.577Z,16.05
2022-11-16T19:32:00.552Z,15.93
2022-11-16T19:34:33.304Z,18.55
2022-11-16T19:37:03.047Z,17.58
2022-11-16T19:39:32.487Z,16.67
2022-11-16T19:42:03.482Z,19.00
2022-11-16T19:44:42.985Z,18.40
2022-11-16T19:47:11.804Z,18.13
2022-11-16T19:49:41.112Z,18.83
2022-11-16T19:52:09.979Z,19.50
2022-11-16T19:54:40.504Z,18.98
2022-11-16T19:57:11.860Z,19.88
2022-11-16T19:59:40.858Z,19.38
2022-11-16T20:02:10.968Z,20.67
2022-11-16T20:04:39.621Z,20.77
2022-11-16T20:07:09.746Z,20.40
2022-11-16T20:09:38.202Z,20.52
2022-11-16T20:12:07.270Z,19.02
2022-11-16T20:14:38.200Z,21.13
2022-11-16T20:17:07.044Z,21.95
2022-11-16T20:19:35.349Z,22.27
2022-11-16T20:22:04.411Z,22.10
2022-11-16T20:24:39.904Z,22.70
2022-11-16T20:27:09.208Z,21.77
2022-11-16T20:29:39.089Z,21.65
2022-11-16T20:32:07.410Z,23.67
2022-11-16T20:34:36.097Z,23.52
2022-11-16T20:37:05.842Z,24.30
2022-11-16T20:39:34.175Z,22.63
2022-11-16T20:42:02.558Z,24.30
2022-11-16T20:44:31.428Z,24.55
2022-11-16T20:47:01.653Z,23.83
2022-11-16T20:49:33.705Z,25.50
2022-11-16T20:52:01.835Z,23.13
2022-11-16T20:54:30.240Z,21.00
2022-11-16T20:56:59.213Z,23.58
2022-11-16T20:59:28.013Z,24.60
2022-11-16T21:01:56.382Z,22.05
2022-11-16T21:04:26.148Z,23.40
2022-11-16T21:06:54.397Z,24.33
2022-11-16T21:09:25.814Z,22.85
2022-11-16T21:12:17.099Z,21.90
2022-11-16T21:14:45.252Z,23.83
2022-11-16T21:17:13.460Z,24.75
2022-11-16T21:19:59.573Z,23.98
2022-11-16T21:22:32.905Z,25.05
2022-11-16T21:25:01.142Z,14.60
2022-11-16T21:27:29.563Z,19.13
2022-11-16T21:29:57.813Z,22.23
2022-11-16T21:32:26.571Z,21.65
2022-11-16T21:34:55.883Z,17.63
2022-11-16T21:37:24.017Z,16.65
2022-11-16T21:39:52.161Z,14.15
2022-11-16T21:42:20.162Z,20.63
2022-11-16T21:44:48.204Z,18.52
2022-11-16T21:47:18.457Z,18.00
2022-11-16T21:50:16.780Z,16.70
2022-11-16T21:52:38.633Z,18.10
2022-11-16T21:55:07.084Z,17.52
2022-11-16T21:57:35.254Z,19.30
2022-11-16T22:00:03.405Z,13.48
2022-11-16T22:02:39.899Z,15.38
2022-11-16T22:05:26.792Z,15.52
2022-11-16T22:07:56.432Z,14.07
2022-11-16T22:10:24.462Z,16.90
2022-11-16T22:12:52.468Z,18.10
2022-11-16T22:15:20.736Z,16.80
2022-11-16T22:17:49.141Z,19.25
2022-11-16T22:20:17.980Z,18.35
2022-11-16T22:22:46.097Z,18.65
2022-11-16T22:25:15.923Z,18.17
2022-11-16T22:28:18.637Z,18.45
2022-11-16T22:30:35.555Z,17.48
2022-11-16T22:33:03.488Z,18.63
2022-11-16T22:35:31.508Z,18.65
2022-11-16T22:38:00.123Z,19.55
2022-11-16T22:40:29.947Z,19.40
2022-11-16T22:42:58.798Z,18.90
2022-11-16T22:45:27.327Z,19.77
2022-11-16T22:47:56.624Z,19.67
2022-11-16T22:50:24.616Z,19.60
2022-11-16T22:52:52.712Z,20.23
2022-11-16T22:55:20.919Z,20.33
2022-11-16T22:57:50.801Z,20.77
2022-11-16T23:00:20.084Z,21.52
2022-11-16T23:02:48.159Z,20.77
2022-11-16T23:05:16.514Z,21.30
2022-11-16T23:07:45.168Z,22.17
2022-11-16T23:10:13.473Z,22.40
2022-11-16T23:12:58.803Z,22.40
2022-11-16T23:15:45.646Z,21.10
2022-11-16T23:18:13.750Z,22.38
2022-11-16T23:20:59.077Z,22.98
2022-11-16T23:23:44.828Z,21.00
2022-11-16T23:26:35.826Z,21.55
2022-11-16T23:29:05.732Z,21.60
2022-11-16T23:31:35.073Z,21.20
2022-11-16T23:34:03.350Z,21.75
2022-11-16T23:36:31.379Z,21.60
2022-11-16T23:38:59.412Z,21.23
2022-11-16T23:41:45.005Z,21.83
2022-11-16T23:44:13.172Z,21.23
2022-11-16T23:46:42.783Z,21.33
2022-11-16T23:49:11.355Z,21.55
2022-11-16T23:51:39.357Z,21.20
2022-11-16T23:54:07.753Z,22.15
2022-11-16T23:56:36.137Z,21.98
2022-11-16T23:59:04.133Z,22.25
